EJU1933 LPFR-GMMI
Flight info
| Callsign | EJU1933 |
|---|---|
| Flight time | 0h 59m |
| Altitude | 19000 |
| Route | OSLAD R724 ESS |
| Aircraft | A320/M-SDE3FGHIRWY/LB1 |
Departure
| Time | 2026-05-04 21:55 |
|---|---|
| Airport | Faro - Gago Coutinho International Airport (LPFR) |
Arrival
| Time | 2026-05-04 22:54 |
|---|---|
| Airport | Essaouira-Mogador Airport (GMMI) |
| Time | Latitude | Longitude | Altitude | Speed | Heading |
|---|---|---|---|---|---|
| 2026-05-04 21:41 | 37.01644 | -7.96172 | 23 ft | 0 kts | 189° |
| 2026-05-04 21:42 | 37.01651 | -7.96170 | 20 ft | 0 kts | 189° |
| 2026-05-04 21:49 | 37.01660 | -7.96168 | 20 ft | 4 kts | 189° |
| 2026-05-04 21:50 | 37.01687 | -7.96162 | 21 ft | 4 kts | 189° |
| 2026-05-04 21:50 | 37.01708 | -7.96158 | 24 ft | 4 kts | 176° |
| 2026-05-04 21:50 | 37.01730 | -7.96168 | 22 ft | 4 kts | 120° |
| 2026-05-04 21:50 | 37.01736 | -7.96196 | 21 ft | 0 kts | 99° |
| 2026-05-04 21:52 | 37.01733 | -7.96173 | 21 ft | 7 kts | 101° |
| 2026-05-04 21:52 | 37.01700 | -7.96088 | 20 ft | 12 kts | 147° |
| 2026-05-04 21:52 | 37.01622 | -7.96090 | 20 ft | 11 kts | 191° |
| 2026-05-04 21:52 | 37.01561 | -7.96076 | 20 ft | 9 kts | 131° |
| 2026-05-04 21:53 | 37.01544 | -7.96012 | 20 ft | 7 kts | 100° |
| 2026-05-04 21:53 | 37.01537 | -7.95942 | 20 ft | 15 kts | 98° |
| 2026-05-04 21:53 | 37.01441 | -7.95842 | 20 ft | 12 kts | 190° |
| 2026-05-04 21:53 | 37.01434 | -7.95843 | 22 ft | 4 kts | 190° |
| 2026-05-04 21:54 | 37.01557 | -7.97354 | 25 ft | 144 kts | 279° |
| 2026-05-04 21:54 | 37.01739 | -7.98574 | 621 ft | 137 kts | 282° |
| 2026-05-04 21:55 | 37.01922 | -7.99803 | 1071 ft | 154 kts | 284° |
| 2026-05-04 21:55 | 37.02068 | -8.01233 | 1370 ft | 180 kts | 269° |
| 2026-05-04 21:55 | 37.01472 | -8.02741 | 1650 ft | 216 kts | 225° |
| 2026-05-04 21:55 | 37.00066 | -8.03654 | 1916 ft | 247 kts | 201° |
| 2026-05-04 21:56 | 36.98316 | -8.04215 | 2343 ft | 271 kts | 193° |
| 2026-05-04 21:56 | 36.96426 | -8.04645 | 3128 ft | 278 kts | 191° |
| 2026-05-04 21:56 | 36.94507 | -8.05052 | 4068 ft | 279 kts | 191° |
| 2026-05-04 21:56 | 36.92602 | -8.05479 | 5101 ft | 277 kts | 193° |
| 2026-05-04 21:57 | 36.90712 | -8.05937 | 6062 ft | 277 kts | 193° |
| 2026-05-04 21:57 | 36.88821 | -8.06424 | 6963 ft | 278 kts | 194° |
| 2026-05-04 21:57 | 36.86924 | -8.06931 | 7792 ft | 280 kts | 194° |
| 2026-05-04 21:57 | 36.85010 | -8.07452 | 8629 ft | 283 kts | 195° |
| 2026-05-04 21:58 | 36.83084 | -8.07983 | 9473 ft | 285 kts | 196° |
| 2026-05-04 21:58 | 36.81135 | -8.08524 | 10262 ft | 289 kts | 196° |
| 2026-05-04 21:58 | 36.79107 | -8.09086 | 10597 ft | 309 kts | 196° |
| 2026-05-04 21:58 | 36.76920 | -8.09690 | 10797 ft | 333 kts | 196° |
| 2026-05-04 21:59 | 36.74584 | -8.10335 | 10940 ft | 356 kts | 195° |
| 2026-05-04 21:59 | 36.72095 | -8.11020 | 11112 ft | 375 kts | 195° |
| 2026-05-04 21:59 | 36.69511 | -8.11725 | 11587 ft | 383 kts | 195° |
| 2026-05-04 21:59 | 36.66931 | -8.12422 | 12201 ft | 387 kts | 195° |
| 2026-05-04 22:00 | 36.64258 | -8.13145 | 12844 ft | 390 kts | 195° |
| 2026-05-04 22:00 | 36.61593 | -8.13870 | 13473 ft | 393 kts | 195° |
| 2026-05-04 22:00 | 36.58909 | -8.14599 | 14090 ft | 396 kts | 196° |
| 2026-05-04 22:00 | 36.56237 | -8.15321 | 14646 ft | 399 kts | 196° |
| 2026-05-04 22:01 | 36.53510 | -8.16062 | 15201 ft | 403 kts | 196° |
| 2026-05-04 22:01 | 36.50729 | -8.16820 | 15779 ft | 405 kts | 196° |
| 2026-05-04 22:01 | 36.48004 | -8.17563 | 16320 ft | 408 kts | 196° |
| 2026-05-04 22:01 | 36.45217 | -8.18324 | 16836 ft | 411 kts | 196° |
| 2026-05-04 22:02 | 36.42420 | -8.19086 | 17377 ft | 413 kts | 196° |
| 2026-05-04 22:02 | 36.39593 | -8.19853 | 17898 ft | 416 kts | 196° |
| 2026-05-04 22:02 | 36.36755 | -8.20622 | 18394 ft | 419 kts | 196° |
| 2026-05-04 22:02 | 36.33893 | -8.21399 | 18822 ft | 422 kts | 196° |
| 2026-05-04 22:03 | 36.31017 | -8.22177 | 19075 ft | 424 kts | 196° |
| 2026-05-04 22:03 | 36.28121 | -8.22958 | 19141 ft | 431 kts | 196° |
| 2026-05-04 22:03 | 36.25158 | -8.23759 | 19145 ft | 438 kts | 196° |
| 2026-05-04 22:03 | 36.22174 | -8.24562 | 19144 ft | 439 kts | 196° |
| 2026-05-04 22:04 | 36.19186 | -8.25363 | 19144 ft | 440 kts | 196° |
| 2026-05-04 22:04 | 36.16191 | -8.26166 | 19149 ft | 440 kts | 196° |
| 2026-05-04 22:04 | 36.13237 | -8.26960 | 19149 ft | 440 kts | 196° |
| 2026-05-04 22:04 | 36.10251 | -8.27765 | 19149 ft | 440 kts | 196° |
| 2026-05-04 22:05 | 36.07261 | -8.28569 | 19146 ft | 440 kts | 196° |
| 2026-05-04 22:05 | 36.04273 | -8.29374 | 19147 ft | 440 kts | 196° |
| 2026-05-04 22:05 | 36.01283 | -8.30179 | 19147 ft | 440 kts | 196° |
| 2026-05-04 22:05 | 35.98296 | -8.30984 | 19147 ft | 440 kts | 196° |
| 2026-05-04 22:06 | 35.95307 | -8.31798 | 19132 ft | 439 kts | 197° |
| 2026-05-04 22:06 | 35.93330 | -8.32377 | 19133 ft | 439 kts | 197° |
| 2026-05-04 22:06 | 35.90331 | -8.33316 | 19135 ft | 439 kts | 198° |
| 2026-05-04 22:06 | 35.87420 | -8.34272 | 19138 ft | 439 kts | 199° |
| 2026-05-04 22:07 | 35.84477 | -8.35252 | 19145 ft | 439 kts | 199° |
| 2026-05-04 22:07 | 35.81519 | -8.36226 | 19147 ft | 439 kts | 198° |
| 2026-05-04 22:07 | 35.78563 | -8.37183 | 19149 ft | 440 kts | 198° |
| 2026-05-04 22:07 | 35.75604 | -8.38124 | 19151 ft | 440 kts | 198° |
| 2026-05-04 22:08 | 35.72634 | -8.39057 | 19152 ft | 440 kts | 198° |
| 2026-05-04 22:08 | 35.69670 | -8.39985 | 19153 ft | 440 kts | 198° |
| 2026-05-04 22:08 | 35.66708 | -8.40910 | 19152 ft | 440 kts | 198° |
| 2026-05-04 22:08 | 35.63737 | -8.41839 | 19152 ft | 440 kts | 198° |
| 2026-05-04 22:09 | 35.60775 | -8.42769 | 19156 ft | 440 kts | 198° |
| 2026-05-04 22:09 | 35.57819 | -8.43700 | 19154 ft | 439 kts | 198° |
| 2026-05-04 22:09 | 35.54853 | -8.44641 | 19154 ft | 439 kts | 198° |
| 2026-05-04 22:09 | 35.51892 | -8.45581 | 19154 ft | 439 kts | 198° |
| 2026-05-04 22:10 | 35.48928 | -8.46516 | 19153 ft | 439 kts | 198° |
| 2026-05-04 22:10 | 35.45966 | -8.47447 | 19152 ft | 439 kts | 198° |
| 2026-05-04 22:10 | 35.43006 | -8.48379 | 19139 ft | 439 kts | 198° |
| 2026-05-04 22:10 | 35.40047 | -8.49309 | 19140 ft | 439 kts | 198° |
| 2026-05-04 22:11 | 35.37082 | -8.50235 | 19145 ft | 439 kts | 198° |
| 2026-05-04 22:11 | 35.34119 | -8.51157 | 19145 ft | 439 kts | 198° |
| 2026-05-04 22:11 | 35.31154 | -8.52080 | 19146 ft | 439 kts | 198° |
| 2026-05-04 22:11 | 35.28192 | -8.53005 | 19153 ft | 440 kts | 198° |
| 2026-05-04 22:12 | 35.25228 | -8.53930 | 19155 ft | 440 kts | 198° |
| 2026-05-04 22:12 | 35.22255 | -8.54856 | 19153 ft | 440 kts | 198° |
| 2026-05-04 22:12 | 35.19326 | -8.55770 | 19148 ft | 440 kts | 198° |
| 2026-05-04 22:12 | 35.16319 | -8.56711 | 19148 ft | 440 kts | 198° |
| 2026-05-04 22:13 | 35.13355 | -8.57639 | 19157 ft | 440 kts | 198° |
| 2026-05-04 22:13 | 35.10390 | -8.58568 | 19159 ft | 440 kts | 198° |
| 2026-05-04 22:13 | 35.07422 | -8.59493 | 19161 ft | 440 kts | 198° |
| 2026-05-04 22:13 | 35.04453 | -8.60414 | 19163 ft | 440 kts | 198° |
| 2026-05-04 22:14 | 35.01485 | -8.61329 | 19162 ft | 440 kts | 198° |
| 2026-05-04 22:14 | 34.98516 | -8.62246 | 19162 ft | 440 kts | 198° |
| 2026-05-04 22:14 | 34.95549 | -8.63164 | 19164 ft | 440 kts | 198° |
| 2026-05-04 22:14 | 34.92583 | -8.64089 | 19147 ft | 440 kts | 198° |
| 2026-05-04 22:15 | 34.89657 | -8.65000 | 19152 ft | 440 kts | 198° |
| 2026-05-04 22:15 | 34.86690 | -8.65920 | 19152 ft | 440 kts | 198° |
| 2026-05-04 22:15 | 34.83721 | -8.66835 | 19155 ft | 440 kts | 198° |
| 2026-05-04 22:15 | 34.80747 | -8.67749 | 19157 ft | 440 kts | 198° |
| 2026-05-04 22:16 | 34.77783 | -8.68663 | 19159 ft | 440 kts | 198° |
| 2026-05-04 22:16 | 34.74809 | -8.69577 | 19160 ft | 440 kts | 198° |
| 2026-05-04 22:16 | 34.71841 | -8.70491 | 19161 ft | 440 kts | 198° |
| 2026-05-04 22:16 | 34.68881 | -8.71406 | 19162 ft | 440 kts | 198° |
| 2026-05-04 22:17 | 34.65909 | -8.72326 | 19147 ft | 440 kts | 198° |
| 2026-05-04 22:17 | 34.62944 | -8.73242 | 19149 ft | 440 kts | 197° |
| 2026-05-04 22:17 | 34.59970 | -8.74157 | 19150 ft | 440 kts | 197° |
| 2026-05-04 22:17 | 34.57037 | -8.75058 | 19151 ft | 440 kts | 197° |
| 2026-05-04 22:18 | 34.54068 | -8.75967 | 19155 ft | 440 kts | 197° |
| 2026-05-04 22:18 | 34.51059 | -8.76888 | 19156 ft | 440 kts | 197° |
| 2026-05-04 22:18 | 34.48122 | -8.77787 | 19160 ft | 441 kts | 197° |
| 2026-05-04 22:18 | 34.45150 | -8.78696 | 19167 ft | 441 kts | 197° |
| 2026-05-04 22:19 | 34.42178 | -8.79603 | 19166 ft | 441 kts | 197° |
| 2026-05-04 22:19 | 34.39207 | -8.80510 | 19157 ft | 441 kts | 197° |
| 2026-05-04 22:19 | 34.36228 | -8.81416 | 19163 ft | 441 kts | 197° |
| 2026-05-04 22:19 | 34.33259 | -8.82322 | 19163 ft | 441 kts | 197° |
| 2026-05-04 22:20 | 34.30287 | -8.83227 | 19162 ft | 441 kts | 197° |
| 2026-05-04 22:20 | 34.27311 | -8.84129 | 19166 ft | 441 kts | 197° |
| 2026-05-04 22:20 | 34.24339 | -8.85026 | 19165 ft | 441 kts | 197° |
| 2026-05-04 22:20 | 34.21363 | -8.85925 | 19165 ft | 441 kts | 197° |
| 2026-05-04 22:21 | 34.18388 | -8.86826 | 19168 ft | 441 kts | 197° |
| 2026-05-04 22:21 | 34.15411 | -8.87730 | 19147 ft | 441 kts | 197° |
| 2026-05-04 22:21 | 34.12440 | -8.88633 | 19151 ft | 440 kts | 197° |
| 2026-05-04 22:21 | 34.09468 | -8.89533 | 19159 ft | 440 kts | 197° |
| 2026-05-04 22:22 | 34.06498 | -8.90428 | 19164 ft | 440 kts | 197° |
| 2026-05-04 22:22 | 34.03529 | -8.91324 | 19167 ft | 440 kts | 197° |
| 2026-05-04 22:22 | 34.00556 | -8.92219 | 19169 ft | 440 kts | 197° |
| 2026-05-04 22:22 | 33.97586 | -8.93112 | 19165 ft | 440 kts | 197° |
| 2026-05-04 22:23 | 33.94613 | -8.94004 | 19166 ft | 440 kts | 197° |
| 2026-05-04 22:23 | 33.91681 | -8.94883 | 19173 ft | 440 kts | 197° |
| 2026-05-04 22:23 | 33.88712 | -8.95774 | 19155 ft | 440 kts | 197° |
| 2026-05-04 22:23 | 33.85739 | -8.96670 | 19160 ft | 440 kts | 197° |
| 2026-05-04 22:24 | 33.82766 | -8.97564 | 19162 ft | 440 kts | 197° |
| 2026-05-04 22:24 | 33.79788 | -8.98455 | 19165 ft | 440 kts | 197° |
| 2026-05-04 22:24 | 33.76813 | -8.99340 | 19166 ft | 440 kts | 197° |
| 2026-05-04 22:24 | 33.73842 | -9.00228 | 19168 ft | 440 kts | 197° |
| 2026-05-04 22:25 | 33.70875 | -9.01116 | 19171 ft | 440 kts | 197° |
| 2026-05-04 22:25 | 33.67902 | -9.02006 | 19172 ft | 440 kts | 197° |
| 2026-05-04 22:25 | 33.64932 | -9.02900 | 19170 ft | 440 kts | 197° |
| 2026-05-04 22:25 | 33.62003 | -9.03778 | 19155 ft | 440 kts | 197° |
| 2026-05-04 22:26 | 33.59033 | -9.04666 | 19157 ft | 440 kts | 197° |
| 2026-05-04 22:26 | 33.56064 | -9.05551 | 19158 ft | 440 kts | 197° |
| 2026-05-04 22:26 | 33.53095 | -9.06433 | 19159 ft | 440 kts | 197° |
| 2026-05-04 22:26 | 33.50124 | -9.07318 | 19163 ft | 440 kts | 197° |
| 2026-05-04 22:27 | 33.47116 | -9.08212 | 19161 ft | 440 kts | 197° |
| 2026-05-04 22:27 | 33.44146 | -9.09095 | 19167 ft | 440 kts | 197° |
| 2026-05-04 22:27 | 33.41218 | -9.09965 | 19172 ft | 440 kts | 197° |
| 2026-05-04 22:27 | 33.38247 | -9.10849 | 19169 ft | 440 kts | 197° |
| 2026-05-04 22:28 | 33.35277 | -9.11729 | 19168 ft | 440 kts | 197° |
| 2026-05-04 22:28 | 33.32306 | -9.12609 | 19160 ft | 439 kts | 197° |
| 2026-05-04 22:28 | 33.29341 | -9.13492 | 19170 ft | 439 kts | 197° |
| 2026-05-04 22:28 | 33.26378 | -9.14372 | 19167 ft | 438 kts | 197° |
| 2026-05-04 22:29 | 33.23423 | -9.15246 | 19167 ft | 438 kts | 197° |
| 2026-05-04 22:29 | 33.20459 | -9.16121 | 19169 ft | 438 kts | 197° |
| 2026-05-04 22:29 | 33.17508 | -9.16995 | 19178 ft | 437 kts | 197° |
| 2026-05-04 22:29 | 33.14550 | -9.17879 | 19170 ft | 437 kts | 198° |
| 2026-05-04 22:30 | 33.11616 | -9.18798 | 19175 ft | 437 kts | 198° |
| 2026-05-04 22:30 | 33.08684 | -9.19751 | 19170 ft | 436 kts | 199° |
| 2026-05-04 22:30 | 33.05747 | -9.20723 | 19172 ft | 436 kts | 199° |
| 2026-05-04 22:30 | 33.02820 | -9.21691 | 19170 ft | 436 kts | 199° |
| 2026-05-04 22:31 | 32.99895 | -9.22650 | 19172 ft | 436 kts | 198° |
| 2026-05-04 22:31 | 32.96959 | -9.23606 | 19168 ft | 436 kts | 198° |
| 2026-05-04 22:31 | 32.94028 | -9.24556 | 19167 ft | 436 kts | 198° |
| 2026-05-04 22:31 | 32.91098 | -9.25502 | 19160 ft | 436 kts | 198° |
| 2026-05-04 22:32 | 32.88168 | -9.26447 | 19164 ft | 436 kts | 198° |
| 2026-05-04 22:32 | 32.85238 | -9.27388 | 19161 ft | 436 kts | 198° |
| 2026-05-04 22:32 | 32.82345 | -9.28314 | 19169 ft | 436 kts | 198° |
| 2026-05-04 22:32 | 32.79411 | -9.29253 | 19152 ft | 436 kts | 198° |
| 2026-05-04 22:33 | 32.76477 | -9.30194 | 19157 ft | 436 kts | 198° |
| 2026-05-04 22:33 | 32.73550 | -9.31136 | 19157 ft | 436 kts | 198° |
| 2026-05-04 22:33 | 32.70617 | -9.32078 | 19163 ft | 436 kts | 198° |
| 2026-05-04 22:33 | 32.67688 | -9.33016 | 19158 ft | 436 kts | 198° |
| 2026-05-04 22:34 | 32.64756 | -9.33955 | 19151 ft | 436 kts | 198° |
| 2026-05-04 22:34 | 32.61822 | -9.34892 | 19151 ft | 436 kts | 198° |
| 2026-05-04 22:34 | 32.58888 | -9.35829 | 19142 ft | 436 kts | 198° |
| 2026-05-04 22:34 | 32.55965 | -9.36765 | 19141 ft | 436 kts | 198° |
| 2026-05-04 22:35 | 32.53032 | -9.37703 | 19135 ft | 436 kts | 199° |
| 2026-05-04 22:35 | 32.50097 | -9.38643 | 19141 ft | 436 kts | 199° |
| 2026-05-04 22:35 | 32.47169 | -9.39581 | 19141 ft | 436 kts | 199° |
| 2026-05-04 22:35 | 32.44243 | -9.40514 | 19142 ft | 436 kts | 199° |
| 2026-05-04 22:36 | 32.41322 | -9.41445 | 19051 ft | 430 kts | 199° |
| 2026-05-04 22:36 | 32.38430 | -9.42365 | 18050 ft | 431 kts | 199° |
| 2026-05-04 22:36 | 32.35568 | -9.43277 | 17082 ft | 431 kts | 198° |
| 2026-05-04 22:36 | 32.32690 | -9.44189 | 16381 ft | 425 kts | 198° |
| 2026-05-04 22:37 | 32.29847 | -9.45089 | 15681 ft | 420 kts | 198° |
| 2026-05-04 22:37 | 32.27037 | -9.45980 | 15006 ft | 416 kts | 198° |
| 2026-05-04 22:37 | 32.24258 | -9.46862 | 14331 ft | 412 kts | 198° |
| 2026-05-04 22:37 | 32.21504 | -9.47735 | 13673 ft | 408 kts | 198° |
| 2026-05-04 22:38 | 32.18768 | -9.48601 | 13025 ft | 404 kts | 198° |
| 2026-05-04 22:38 | 32.16079 | -9.49452 | 12412 ft | 398 kts | 198° |
| 2026-05-04 22:38 | 32.13421 | -9.50295 | 11777 ft | 393 kts | 198° |
| 2026-05-04 22:38 | 32.10810 | -9.51124 | 11418 ft | 381 kts | 198° |
| 2026-05-04 22:39 | 32.08312 | -9.51915 | 11298 ft | 363 kts | 198° |
| 2026-05-04 22:39 | 32.05927 | -9.52666 | 11171 ft | 347 kts | 198° |
| 2026-05-04 22:39 | 32.03643 | -9.53383 | 11043 ft | 332 kts | 198° |
| 2026-05-04 22:39 | 32.01454 | -9.54069 | 10937 ft | 319 kts | 199° |
| 2026-05-04 22:40 | 31.99352 | -9.54728 | 10808 ft | 307 kts | 199° |
| 2026-05-04 22:40 | 31.97324 | -9.55366 | 10646 ft | 297 kts | 198° |
| 2026-05-04 22:40 | 31.95347 | -9.55991 | 10508 ft | 292 kts | 199° |
| 2026-05-04 22:40 | 31.93387 | -9.56612 | 10394 ft | 292 kts | 198° |
| 2026-05-04 22:41 | 31.91431 | -9.57231 | 10261 ft | 290 kts | 199° |
| 2026-05-04 22:41 | 31.89504 | -9.57842 | 10133 ft | 291 kts | 198° |
| 2026-05-04 22:41 | 31.87549 | -9.58460 | 9833 ft | 293 kts | 197° |
| 2026-05-04 22:41 | 31.85578 | -9.59084 | 9395 ft | 292 kts | 197° |
| 2026-05-04 22:42 | 31.83615 | -9.59701 | 8992 ft | 291 kts | 197° |
| 2026-05-04 22:42 | 31.81665 | -9.60315 | 8598 ft | 289 kts | 197° |
| 2026-05-04 22:42 | 31.79725 | -9.60923 | 8205 ft | 288 kts | 196° |
| 2026-05-04 22:42 | 31.77799 | -9.61527 | 7823 ft | 286 kts | 196° |
| 2026-05-04 22:43 | 31.75879 | -9.62131 | 7428 ft | 284 kts | 195° |
| 2026-05-04 22:43 | 31.73978 | -9.62729 | 7052 ft | 282 kts | 195° |
| 2026-05-04 22:43 | 31.72083 | -9.63327 | 6666 ft | 281 kts | 195° |
| 2026-05-04 22:43 | 31.70202 | -9.63916 | 6254 ft | 280 kts | 193° |
| 2026-05-04 22:44 | 31.68340 | -9.64499 | 5834 ft | 280 kts | 193° |
| 2026-05-04 22:44 | 31.66462 | -9.65089 | 5438 ft | 278 kts | 193° |
| 2026-05-04 22:44 | 31.64601 | -9.65673 | 5063 ft | 276 kts | 193° |
| 2026-05-04 22:44 | 31.62755 | -9.66250 | 4689 ft | 274 kts | 193° |
| 2026-05-04 22:45 | 31.60920 | -9.66822 | 4314 ft | 271 kts | 193° |
| 2026-05-04 22:45 | 31.57311 | -9.67951 | 3588 ft | 266 kts | 193° |
| 2026-05-04 22:45 | 31.55529 | -9.68512 | 3227 ft | 265 kts | 193° |
| 2026-05-04 22:46 | 31.53760 | -9.69068 | 2867 ft | 262 kts | 192° |
| 2026-05-04 22:46 | 31.52007 | -9.69618 | 2507 ft | 257 kts | 192° |
| 2026-05-04 22:46 | 31.50291 | -9.70155 | 2155 ft | 254 kts | 192° |
| 2026-05-04 22:46 | 31.48586 | -9.70687 | 1820 ft | 253 kts | 191° |
| 2026-05-04 22:47 | 31.46906 | -9.71272 | 1602 ft | 248 kts | 199° |
| 2026-05-04 22:47 | 31.45401 | -9.72019 | 1596 ft | 224 kts | 201° |
| 2026-05-04 22:47 | 31.44001 | -9.72748 | 1602 ft | 217 kts | 200° |
| 2026-05-04 22:47 | 31.42625 | -9.73469 | 1625 ft | 216 kts | 201° |
| 2026-05-04 22:48 | 31.41254 | -9.74187 | 1615 ft | 216 kts | 202° |
| 2026-05-04 22:48 | 31.39882 | -9.74903 | 1612 ft | 216 kts | 202° |
| 2026-05-04 22:48 | 31.38503 | -9.75621 | 1631 ft | 211 kts | 202° |
| 2026-05-04 22:48 | 31.37243 | -9.76282 | 1615 ft | 187 kts | 201° |
| 2026-05-04 22:49 | 31.36109 | -9.76830 | 1589 ft | 171 kts | 186° |
| 2026-05-04 22:49 | 31.34977 | -9.76756 | 1598 ft | 163 kts | 159° |
| 2026-05-04 22:49 | 31.33898 | -9.76379 | 1598 ft | 161 kts | 152° |
| 2026-05-04 22:49 | 31.32843 | -9.75957 | 1599 ft | 159 kts | 151° |
| 2026-05-04 22:50 | 31.31808 | -9.75527 | 1606 ft | 156 kts | 152° |
| 2026-05-04 22:50 | 31.31016 | -9.74799 | 1619 ft | 141 kts | 109° |
| 2026-05-04 22:50 | 31.30683 | -9.73754 | 1619 ft | 134 kts | 97° |
| 2026-05-04 22:50 | 31.30656 | -9.72711 | 1613 ft | 125 kts | 73° |
| 2026-05-04 22:51 | 31.30890 | -9.71726 | 1613 ft | 127 kts | 68° |
| 2026-05-04 22:51 | 31.31184 | -9.70760 | 1569 ft | 127 kts | 63° |
| 2026-05-04 22:51 | 31.31600 | -9.69889 | 1619 ft | 123 kts | 48° |
| 2026-05-04 22:51 | 31.32262 | -9.69236 | 1538 ft | 128 kts | 32° |
| 2026-05-04 22:52 | 31.33009 | -9.68729 | 1406 ft | 123 kts | 30° |
| 2026-05-04 22:52 | 31.33760 | -9.68243 | 1377 ft | 124 kts | 30° |
| 2026-05-04 22:52 | 31.34553 | -9.67795 | 1311 ft | 127 kts | 25° |
| 2026-05-04 22:52 | 31.35373 | -9.67390 | 1071 ft | 128 kts | 22° |
| 2026-05-04 22:53 | 31.36218 | -9.67057 | 933 ft | 128 kts | 19° |
| 2026-05-04 22:53 | 31.37101 | -9.67004 | 812 ft | 131 kts | 348° |
| 2026-05-04 22:53 | 31.37667 | -9.67268 | 685 ft | 135 kts | 336° |
| 2026-05-04 22:53 | 31.38826 | -9.67808 | 431 ft | 134 kts | 343° |
| 2026-05-04 22:54 | 31.39379 | -9.68052 | 396 ft | 118 kts | 341° |
| 2026-05-04 22:54 | 31.39898 | -9.68288 | 394 ft | 47 kts | 338° |
| 2026-05-04 22:54 | 31.40074 | -9.68380 | 393 ft | 10 kts | 287° |
| 2026-05-04 22:54 | 31.40076 | -9.68460 | 393 ft | 21 kts | 285° |
| 2026-05-04 22:55 | 31.40194 | -9.68612 | 393 ft | 20 kts | 340° |
| 2026-05-04 22:55 | 31.40283 | -9.68650 | 393 ft | 21 kts | 339° |
| 2026-05-04 22:55 | 31.40336 | -9.68677 | 393 ft | 1 kts | 312° |
| 2026-05-04 22:55 | 31.40336 | -9.68678 | 393 ft | 0 kts | 309° |
| 2026-05-04 22:56 | 31.40339 | -9.68707 | 393 ft | 5 kts | 263° |
| 2026-05-04 22:56 | 31.40331 | -9.68737 | 393 ft | 3 kts | 250° |
| 2026-05-04 22:56 | 31.40325 | -9.68753 | 393 ft | 0 kts | 248° |